Time;durP1;ratioP1;P1;durP2;ratioP2;P2;SDS_P1;SDS_P2;PMS_P1;PMS_P2;Temp;Humidity;BMP_temperature;BMP_pressure;BME280_temperature;BME280_humidity;BME280_pressure;Samples;Min_cycle;Max_cycle;Signal;HPM_P1;HPM_P2
2023/04/01 00:00:30;;;;;;;1.90;1.43;;;6.20;99.90;;;;;;5050903;28;20445;-56
2023/04/01 00:02:57;;;;;;;2.07;1.00;;;6.40;99.90;;;;;;5050568;28;20476;-56
2023/04/01 00:05:26;;;;;;;1.70;0.97;;;6.30;99.90;;;;;;5050604;28;20545;-56
2023/04/01 00:07:53;;;;;;;3.00;2.00;;;6.00;99.90;;;;;;5050650;28;20851;-56
2023/04/01 00:10:20;;;;;;;3.00;2.80;;;6.20;99.90;;;;;;5051084;28;20476;-56
2023/04/01 00:12:47;;;;;;;2.93;2.40;;;6.30;99.90;;;;;;5050631;28;21039;-56
2023/04/01 00:15:13;;;;;;;3.27;2.60;;;6.30;99.90;;;;;;5050686;28;20473;-56
2023/04/01 00:17:40;;;;;;;3.63;2.97;;;5.60;99.90;;;;;;5050288;28;20568;-56
2023/04/01 00:20:09;;;;;;;4.00;2.50;;;5.30;99.90;;;;;;5050615;28;20495;-56
2023/04/01 00:22:37;;;;;;;2.60;2.40;;;5.40;99.90;;;;;;5050832;28;20465;-56
2023/04/01 00:25:04;;;;;;;4.50;3.37;;;5.60;99.90;;;;;;5050626;28;20472;-56
2023/04/01 00:27:31;;;;;;;7.67;5.07;;;5.80;99.90;;;;;;5050899;28;20455;-56
2023/04/01 00:29:58;;;;;;;1.93;1.73;;;5.90;99.90;;;;;;5050701;28;20971;-56
2023/04/01 00:32:26;;;;;;;1.87;1.23;;;6.00;99.90;;;;;;5050390;28;20441;-56
2023/04/01 00:34:53;;;;;;;1.90;1.67;;;5.60;99.90;;;;;;5050324;28;20933;-56
2023/04/01 00:37:21;;;;;;;3.77;1.73;;;5.30;99.90;;;;;;5050055;28;20508;-56
2023/04/01 00:39:49;;;;;;;2.93;1.93;;;5.30;99.90;;;;;;5050172;28;20476;-56
2023/04/01 00:42:16;;;;;;;4.53;1.80;;;5.40;99.90;;;;;;5050054;28;20503;-56
2023/04/01 00:44:43;;;;;;;1.90;1.47;;;5.40;99.90;;;;;;5051321;28;20524;-56
2023/04/01 00:47:11;;;;;;;2.00;1.33;;;5.60;99.90;;;;;;5054196;28;20440;-54
2023/04/01 00:49:41;;;;;;;2.30;1.03;;;5.70;99.90;;;;;;5053751;28;20804;-56
2023/04/01 00:52:12;;;;;;;1.40;0.90;;;6.00;99.90;;;;;;5052906;28;20964;-56
2023/04/01 00:54:41;;;;;;;3.30;2.63;;;6.00;99.90;;;;;;5054134;28;20537;-56
2023/04/01 00:57:14;;;;;;;2.40;1.90;;;5.80;99.90;;;;;;5053469;28;20504;-56
2023/04/01 00:59:47;;;;;;;2.80;1.93;;;5.80;99.90;;;;;;5053632;28;20540;-56
2023/04/01 01:02:15;;;;;;;1.77;1.63;;;5.80;99.90;;;;;;5053602;28;20450;-56
2023/04/01 01:04:42;;;;;;;4.63;2.57;;;5.80;99.90;;;;;;5054051;28;21007;-56
2023/04/01 01:07:20;;;;;;;3.53;2.00;;;5.60;99.90;;;;;;5053903;28;20441;-56
2023/04/01 01:09:59;;;;;;;1.83;1.70;;;5.50;99.90;;;;;;5053704;28;21047;-56
2023/04/01 01:12:32;;;;;;;2.33;1.67;;;5.60;99.90;;;;;;5053746;28;20476;-56
2023/04/01 01:15:08;;;;;;;1.47;1.10;;;5.50;99.90;;;;;;5053884;28;20570;-56
2023/04/01 01:17:46;;;;;;;1.57;1.20;;;5.70;99.90;;;;;;5053400;28;21017;-56
2023/04/01 01:20:42;;;;;;;2.50;1.23;;;6.10;99.90;;;;;;5053687;28;20959;-56
2023/04/01 01:23:46;;;;;;;4.70;1.53;;;5.90;99.90;;;;;;5053558;28;20481;-56
2023/04/01 01:26:52;;;;;;;1.80;1.70;;;5.90;99.90;;;;;;5000523;28;20523;-56
2023/04/01 01:30:07;;;;;;;2.00;1.40;;;5.80;99.90;;;;;;5036660;28;20502;-56
2023/04/01 01:33:07;;;;;;;2.00;1.40;;;5.50;99.90;;;;;;5037347;28;20926;-56
2023/04/01 01:35:40;;;;;;;2.00;1.13;;;5.40;99.90;;;;;;5052522;28;20453;-56
2023/04/01 01:38:10;;;;;;;1.70;1.20;;;5.30;99.90;;;;;;5053515;28;20512;-56
2023/04/01 01:40:40;;;;;;;3.37;1.70;;;5.30;99.90;;;;;;5052961;28;20476;-56
2023/04/01 01:43:10;;;;;;;2.23;1.27;;;5.50;99.90;;;;;;5053252;28;20452;-56
2023/04/01 01:45:41;;;;;;;1.50;1.20;;;5.60;99.90;;;;;;5052078;28;20445;-56
2023/04/01 01:48:10;;;;;;;1.93;1.23;;;5.70;99.90;;;;;;5052888;28;20525;-57
2023/04/01 01:50:40;;;;;;;1.40;1.20;;;5.70;99.90;;;;;;5052970;28;21023;-56
2023/04/01 01:53:10;;;;;;;1.67;1.00;;;5.50;99.90;;;;;;5053264;28;20445;-56
2023/04/01 01:55:39;;;;;;;1.47;0.93;;;5.40;99.90;;;;;;5052370;28;20445;-55
2023/04/01 01:58:12;;;;;;;3.93;2.70;;;5.50;99.90;;;;;;5052565;28;21069;-56
2023/04/01 02:00:40;;;;;;;3.13;2.23;;;5.70;99.90;;;;;;5052730;28;20476;-56
2023/04/01 02:03:07;;;;;;;2.97;1.77;;;5.50;99.90;;;;;;5051407;28;20521;-56
2023/04/01 02:05:36;;;;;;;1.30;1.20;;;5.40;99.90;;;;;;5052036;28;20478;-56
2023/04/01 02:08:09;;;;;;;1.83;1.23;;;5.60;99.90;;;;;;5052283;28;20469;-55
2023/04/01 02:10:40;;;;;;;4.10;1.70;;;5.70;99.90;;;;;;5052511;28;20688;-56
2023/04/01 02:13:15;;;;;;;1.90;1.30;;;5.60;99.90;;;;;;5052936;28;20513;-56
2023/04/01 02:15:46;;;;;;;1.67;1.23;;;5.60;99.90;;;;;;5052548;28;20475;-56
2023/04/01 02:18:15;;;;;;;1.40;1.30;;;5.60;99.90;;;;;;5051620;28;20574;-56
2023/04/01 02:20:43;;;;;;;2.40;1.80;;;5.30;99.90;;;;;;5051914;28;20453;-56
2023/04/01 02:23:12;;;;;;;1.50;1.37;;;5.10;99.90;;;;;;5052850;28;20476;-56
2023/04/01 02:25:41;;;;;;;2.33;1.40;;;5.40;99.90;;;;;;5052736;28;20530;-56
2023/04/01 02:28:09;;;;;;;2.87;1.70;;;5.50;99.90;;;;;;5052352;28;20561;-56
2023/04/01 02:30:40;;;;;;;1.67;0.90;;;5.40;99.90;;;;;;5052112;28;20475;-56
2023/04/01 02:33:07;;;;;;;1.20;0.90;;;5.40;99.90;;;;;;5052299;28;20484;-56
2023/04/01 02:35:36;;;;;;;2.43;1.57;;;5.40;99.90;;;;;;5051805;28;20519;-56
2023/04/01 02:38:03;;;;;;;2.17;1.30;;;5.70;99.90;;;;;;5052443;28;20488;-56
2023/04/01 02:40:43;;;;;;;2.13;1.40;;;5.90;99.90;;;;;;5052653;28;20476;-56
2023/04/01 02:43:11;;;;;;;1.63;1.10;;;5.70;99.90;;;;;;5052335;28;20484;-56
2023/04/01 02:45:38;;;;;;;1.63;1.40;;;5.20;99.90;;;;;;5051497;28;20866;-56
2023/04/01 02:48:05;;;;;;;2.40;1.40;;;4.90;99.90;;;;;;5052188;28;20563;-56
2023/04/01 02:50:32;;;;;;;4.90;1.50;;;5.10;99.90;;;;;;5051864;28;20484;-56
2023/04/01 02:52:59;;;;;;;1.53;1.43;;;5.40;99.90;;;;;;5051962;28;21059;-56
2023/04/01 02:55:26;;;;;;;2.73;0.90;;;5.40;99.90;;;;;;5051705;28;20453;-56
2023/04/01 02:57:54;;;;;;;1.53;0.90;;;5.60;99.90;;;;;;5051397;28;20556;-57
2023/04/01 03:00:21;;;;;;;1.30;1.00;;;5.60;99.90;;;;;;5051710;28;20892;-56
2023/04/01 03:02:48;;;;;;;2.70;1.10;;;5.60;99.90;;;;;;5051526;28;20477;-56
2023/04/01 03:05:15;;;;;;;1.67;1.57;;;5.60;99.90;;;;;;5051385;28;20528;-56
2023/04/01 03:07:42;;;;;;;1.50;1.20;;;5.60;99.90;;;;;;5050787;28;21028;-56
2023/04/01 03:10:10;;;;;;;1.90;1.30;;;5.40;99.90;;;;;;5051886;28;20477;-56
2023/04/01 03:12:37;;;;;;;1.70;1.57;;;5.10;99.90;;;;;;5051477;28;20488;-56
2023/04/01 03:15:07;;;;;;;2.60;1.47;;;5.00;99.90;;;;;;5051487;28;20492;-56
2023/04/01 03:17:33;;;;;;;2.17;1.73;;;5.10;99.90;;;;;;5051412;28;20564;-56
2023/04/01 03:20:00;;;;;;;1.60;1.20;;;5.30;99.90;;;;;;5051767;28;20469;-56
2023/04/01 03:22:27;;;;;;;1.97;1.53;;;5.40;99.90;;;;;;5051147;28;20469;-56
2023/04/01 03:24:54;;;;;;;2.90;1.70;;;5.20;99.90;;;;;;5050925;28;20865;-56
2023/04/01 03:27:21;;;;;;;3.60;1.47;;;5.10;99.90;;;;;;5051536;28;20453;-56
2023/04/01 03:29:48;;;;;;;1.60;1.37;;;5.10;99.90;;;;;;5051504;28;20548;-56
2023/04/01 03:32:16;;;;;;;1.47;1.37;;;5.10;99.90;;;;;;5051510;28;20480;-56
2023/04/01 03:34:43;;;;;;;1.60;1.37;;;5.30;99.90;;;;;;5051119;28;20535;-57
2023/04/01 03:37:10;;;;;;;9.47;5.80;;;5.30;99.90;;;;;;5050246;28;21065;-56
2023/04/01 03:39:37;;;;;;;2.20;1.70;;;5.40;99.90;;;;;;5051313;28;20504;-56
2023/04/01 03:42:06;;;;;;;2.43;1.73;;;5.30;99.90;;;;;;5051329;28;20515;-54
2023/04/01 03:44:33;;;;;;;3.10;1.60;;;5.10;99.90;;;;;;5051096;28;20462;-56
2023/04/01 03:47:00;;;;;;;1.43;1.33;;;5.10;99.90;;;;;;5051382;28;20608;-56
2023/04/01 03:49:31;;;;;;;5.60;2.53;;;5.00;99.90;;;;;;5050735;28;20504;-56
2023/04/01 03:51:59;;;;;;;1.87;1.77;;;5.10;99.90;;;;;;5051345;28;20440;-56
2023/04/01 03:54:26;;;;;;;2.70;1.77;;;5.30;99.90;;;;;;5051027;28;20472;-56
2023/04/01 03:56:52;;;;;;;2.27;1.87;;;5.20;99.90;;;;;;5050542;28;20483;-56
2023/04/01 03:59:19;;;;;;;3.67;1.60;;;5.30;99.90;;;;;;5051200;28;20563;-56
2023/04/01 04:01:48;;;;;;;4.23;2.50;;;5.30;99.90;;;;;;5050530;28;20473;-57
2023/04/01 04:04:15;;;;;;;2.43;1.90;;;5.20;99.90;;;;;;5050546;28;20449;-56
2023/04/01 04:06:43;;;;;;;2.00;1.50;;;5.20;99.90;;;;;;5050514;28;20535;-56
2023/04/01 04:09:10;;;;;;;3.60;1.73;;;5.30;99.90;;;;;;5051038;28;20552;-56
2023/04/01 04:11:37;;;;;;;2.20;1.80;;;5.30;99.90;;;;;;5050433;28;20523;-56
2023/04/01 04:14:04;;;;;;;2.37;1.90;;;5.20;99.90;;;;;;5050863;28;20527;-56
2023/04/01 04:16:31;;;;;;;2.10;1.53;;;5.10;99.90;;;;;;5050836;28;20506;-56
2023/04/01 04:18:58;;;;;;;1.67;1.57;;;5.10;99.90;;;;;;5054168;28;20507;-56
2023/04/01 04:21:25;;;;;;;2.27;1.53;;;5.30;99.90;;;;;;5057203;28;20499;-56
2023/04/01 04:23:53;;;;;;;1.70;1.50;;;5.40;99.90;;;;;;5057047;28;20469;-55
2023/04/01 04:26:20;;;;;;;2.63;1.40;;;5.40;99.90;;;;;;5056731;28;20499;-56
2023/04/01 04:28:47;;;;;;;3.40;1.80;;;5.40;99.90;;;;;;5056958;28;20548;-56
2023/04/01 04:31:20;;;;;;;2.70;2.30;;;5.30;99.90;;;;;;5055864;28;20956;-56
2023/04/01 04:33:47;;;;;;;2.83;2.30;;;5.50;99.90;;;;;;5057723;28;20456;-56
2023/04/01 04:36:14;;;;;;;1.90;1.73;;;5.60;99.90;;;;;;5055561;28;20884;-56
2023/04/01 04:38:41;;;;;;;1.53;1.43;;;5.40;99.90;;;;;;5056621;28;20509;-56
2023/04/01 04:41:12;;;;;;;2.67;1.70;;;5.40;99.90;;;;;;5056234;28;20449;-56
2023/04/01 04:43:39;;;;;;;1.93;1.57;;;5.60;99.90;;;;;;5053879;28;20452;-56
2023/04/01 04:46:07;;;;;;;3.30;1.43;;;5.60;99.90;;;;;;5057688;28;20493;-56
2023/04/01 04:48:34;;;;;;;1.80;1.33;;;5.60;99.90;;;;;;5064066;23;20492;-84
2023/04/01 04:51:01;;;;;;;1.90;1.70;;;5.40;99.90;;;;;;5057263;28;20489;-85
2023/04/01 04:53:28;;;;;;;1.80;1.63;;;5.40;99.90;;;;;;5057342;28;20936;-85
2023/04/01 04:55:55;;;;;;;3.10;1.60;;;5.30;99.90;;;;;;5041149;28;20478;-84
2023/04/01 04:58:24;;;;;;;2.90;1.37;;;5.30;99.90;;;;;;5037476;28;20532;-85
2023/04/01 05:00:51;;;;;;;1.70;1.57;;;5.30;99.90;;;;;;5037817;28;20515;-85
2023/04/01 05:03:18;;;;;;;2.17;2.00;;;5.30;99.90;;;;;;5065715;22;20588;-51
2023/04/01 05:05:50;;;;;;;3.63;1.90;;;5.40;99.90;;;;;;5060322;28;20447;-51
2023/04/01 05:08:17;;;;;;;1.90;1.70;;;5.50;99.90;;;;;;5057394;28;20462;-51
2023/04/01 05:10:44;;;;;;;2.97;1.70;;;5.40;99.90;;;;;;5039912;28;20463;-51
2023/04/01 05:13:11;;;;;;;1.77;1.67;;;5.40;99.90;;;;;;5040069;28;20812;-51
2023/04/01 05:15:40;;;;;;;1.43;1.10;;;5.30;99.90;;;;;;5040725;28;20434;-52
2023/04/01 05:18:07;;;;;;;2.03;1.60;;;5.30;99.90;;;;;;5040759;28;20493;-51
2023/04/01 05:20:34;;;;;;;2.53;1.50;;;5.40;99.90;;;;;;5040184;28;20450;-52
2023/04/01 05:23:01;;;;;;;3.57;1.77;;;5.40;99.90;;;;;;5039887;28;20835;-51
2023/04/01 05:25:28;;;;;;;2.73;1.40;;;5.40;99.90;;;;;;5039757;28;20984;-51
2023/04/01 05:27:55;;;;;;;1.83;1.17;;;5.50;99.90;;;;;;5040115;28;20454;-50
2023/04/01 05:30:22;;;;;;;1.40;1.30;;;5.50;99.90;;;;;;5038085;28;20500;-52
2023/04/01 05:32:50;;;;;;;1.57;1.47;;;5.70;99.90;;;;;;5035277;28;20446;-50
2023/04/01 05:35:18;;;;;;;1.40;1.00;;;5.70;99.90;;;;;;5036628;28;20516;-51
2023/04/01 05:37:44;;;;;;;1.90;1.50;;;5.60;99.90;;;;;;5037310;28;20470;-52
2023/04/01 05:40:12;;;;;;;3.80;2.30;;;5.80;99.90;;;;;;5043380;28;20461;-51
2023/04/01 05:42:39;;;;;;;3.20;2.90;;;5.60;99.90;;;;;;5047148;28;20533;-53
2023/04/01 05:45:07;;;;;;;4.10;3.40;;;5.60;99.90;;;;;;5043566;28;20476;-50
2023/04/01 05:47:34;;;;;;;3.40;2.83;;;5.60;99.90;;;;;;5045400;28;20975;-51
2023/04/01 05:50:02;;;;;;;3.70;3.20;;;5.50;99.90;;;;;;5041075;28;20493;-53
2023/04/01 05:52:29;;;;;;;3.80;3.03;;;5.50;99.90;;;;;;5041158;28;20829;-52
2023/04/01 05:54:56;;;;;;;3.30;2.80;;;5.50;99.90;;;;;;5044694;28;20482;-50
2023/04/01 05:57:23;;;;;;;5.53;3.20;;;5.70;99.90;;;;;;5046703;28;20484;-51
2023/04/01 05:59:50;;;;;;;3.80;3.00;;;5.80;99.90;;;;;;5044754;28;20544;-52
2023/04/01 06:02:19;;;;;;;5.10;4.27;;;5.90;99.90;;;;;;5045572;28;20481;-53
2023/04/01 06:04:46;;;;;;;5.37;4.00;;;5.80;99.90;;;;;;5043601;28;20453;-51
2023/04/01 06:07:15;;;;;;;3.57;3.27;;;5.80;99.90;;;;;;5046149;28;20537;-50
2023/04/01 06:09:43;;;;;;;3.50;3.20;;;5.80;99.90;;;;;;5033967;28;20509;-50
2023/04/01 06:12:30;;;;;;;3.23;2.93;;;5.90;99.90;;;;;;5040120;28;20507;-51
2023/04/01 06:15:13;;;;;;;2.37;2.17;;;5.90;99.90;;;;;;5037779;28;20857;-54
2023/04/01 06:17:58;;;;;;;4.20;3.80;;;6.00;99.90;;;;;;5039596;28;20898;-51
2023/04/01 06:20:31;;;;;;;3.93;3.63;;;5.90;99.90;;;;;;5041933;28;20495;-52
2023/04/01 06:23:33;;;;;;;4.30;3.90;;;5.90;99.90;;;;;;5041382;28;20956;-55
2023/04/01 06:26:17;;;;;;;4.60;3.37;;;5.90;99.90;;;;;;5010419;28;20549;-52
2023/04/01 06:29:09;;;;;;;4.40;3.97;;;5.90;99.90;;;;;;5043111;28;20536;-52
2023/04/01 06:32:02;;;;;;;6.07;3.70;;;5.80;99.90;;;;;;5044925;28;20521;-52
2023/04/01 06:35:05;;;;;;;5.73;2.33;;;5.70;99.90;;;;;;5034324;28;20474;-53
2023/04/01 06:37:51;;;;;;;2.60;1.87;;;5.80;99.90;;;;;;5025613;28;21095;-54
2023/04/01 06:40:43;;;;;;;3.77;3.40;;;6.10;99.90;;;;;;5042351;28;20554;-52
2023/04/01 06:43:20;;;;;;;4.17;3.77;;;6.20;99.90;;;;;;5037125;28;20529;-52
2023/04/01 06:45:53;;;;;;;4.40;3.93;;;6.30;99.90;;;;;;5037010;28;20445;-52
2023/04/01 06:48:37;;;;;;;3.90;3.60;;;6.40;99.90;;;;;;5037956;28;20462;-53
2023/04/01 06:51:13;;;;;;;4.33;3.73;;;6.20;99.90;;;;;;5028892;28;20481;-53
2023/04/01 06:53:46;;;;;;;6.83;3.70;;;6.00;99.90;;;;;;5036944;28;20477;-53
2023/04/01 06:56:18;;;;;;;4.33;3.80;;;6.10;99.90;;;;;;5040220;28;20855;-53
2023/04/01 06:58:49;;;;;;;9.17;3.93;;;5.90;99.90;;;;;;5038227;28;20551;-53
2023/04/01 07:01:22;;;;;;;5.00;4.43;;;5.90;99.90;;;;;;5042326;28;21025;-53
2023/04/01 07:03:54;;;;;;;6.30;4.70;;;5.80;99.90;;;;;;5040161;28;20482;-53
2023/04/01 07:06:27;;;;;;;7.40;5.60;;;5.80;99.90;;;;;;5038692;28;20446;-53
2023/04/01 07:09:00;;;;;;;5.50;5.00;;;5.90;99.90;;;;;;5037201;28;20563;-56
2023/04/01 07:11:32;;;;;;;4.67;4.07;;;6.00;99.90;;;;;;5038986;28;20448;-56
2023/04/01 07:14:02;;;;;;;6.07;5.57;;;6.10;99.90;;;;;;5038648;28;20533;-55
2023/04/01 07:16:32;;;;;;;6.27;5.67;;;6.30;99.90;;;;;;5039279;28;20488;-53
2023/04/01 07:19:02;;;;;;;5.43;4.93;;;6.50;99.90;;;;;;5038134;28;20560;-54
2023/04/01 07:21:35;;;;;;;6.60;6.03;;;6.60;99.90;;;;;;5034173;28;20530;-54
2023/04/01 07:24:06;;;;;;;5.93;5.40;;;6.50;99.90;;;;;;5039338;28;20546;-53
2023/04/01 07:26:35;;;;;;;4.87;4.47;;;6.50;99.90;;;;;;5035858;28;20526;-55
2023/04/01 07:29:02;;;;;;;5.00;4.60;;;6.70;99.90;;;;;;5033031;28;20462;-53
2023/04/01 07:31:50;;;;;;;4.83;4.40;;;6.80;99.90;;;;;;5031629;28;20474;-54
2023/04/01 07:34:24;;;;;;;3.60;3.30;;;6.70;99.90;;;;;;5032065;28;20462;-52
2023/04/01 07:37:01;;;;;;;3.80;3.23;;;6.80;99.90;;;;;;5030404;28;20484;-52
2023/04/01 07:39:36;;;;;;;6.67;5.33;;;7.00;99.90;;;;;;5032544;28;20478;-54
2023/04/01 07:42:12;;;;;;;3.53;3.23;;;7.00;99.90;;;;;;5033139;28;20442;-56
2023/04/01 07:44:45;;;;;;;3.30;2.83;;;7.10;99.90;;;;;;5033764;28;20481;-54
2023/04/01 07:47:24;;;;;;;5.10;2.93;;;7.20;99.90;;;;;;5042341;28;20830;-52
2023/04/01 07:50:02;;;;;;;3.20;2.20;;;7.30;99.90;;;;;;5038117;28;20454;-54
2023/04/01 07:52:35;;;;;;;3.17;2.60;;;7.30;99.90;;;;;;5031018;28;20496;-52
2023/04/01 07:55:13;;;;;;;3.83;3.03;;;7.40;99.90;;;;;;5026253;28;21025;-53
2023/04/01 07:57:47;;;;;;;3.10;2.67;;;7.50;99.90;;;;;;5027417;28;20477;-52
2023/04/01 08:00:21;;;;;;;5.77;3.10;;;7.60;99.90;;;;;;5027521;28;20537;-52
2023/04/01 08:03:24;;;;;;;3.37;3.07;;;7.70;99.90;;;;;;5027414;28;20450;-55
2023/04/01 08:05:56;;;;;;;3.43;1.70;;;7.70;99.90;;;;;;5026778;28;20439;-51
2023/04/01 08:08:34;;;;;;;2.33;2.10;;;7.60;99.90;;;;;;5027095;28;20726;-52
2023/04/01 08:11:10;;;;;;;1.97;1.23;;;7.60;99.90;;;;;;5034284;28;20446;-52
2023/04/01 08:13:44;;;;;;;3.33;2.00;;;7.60;99.90;;;;;;5030813;28;20477;-54
2023/04/01 08:16:19;;;;;;;2.57;1.80;;;7.70;99.90;;;;;;5029373;28;20534;-53
2023/04/01 08:18:54;;;;;;;3.13;2.30;;;7.80;99.90;;;;;;5033372;28;21020;-52
2023/04/01 08:21:25;;;;;;;2.60;1.87;;;7.90;99.90;;;;;;5031526;28;20893;-51
2023/04/01 08:23:55;;;;;;;3.30;3.00;;;7.90;99.90;;;;;;5031118;28;20953;-52
2023/04/01 08:26:31;;;;;;;2.47;2.13;;;7.80;99.90;;;;;;5031825;28;20445;-53
2023/04/01 08:29:05;;;;;;;2.80;2.07;;;7.90;99.90;;;;;;5028976;28;20988;-55
2023/04/01 08:31:36;;;;;;;2.40;1.70;;;7.90;99.90;;;;;;5038346;28;20536;-51
2023/04/01 08:34:06;;;;;;;2.50;1.60;;;7.80;99.90;;;;;;5037975;28;20513;-52
2023/04/01 08:36:37;;;;;;;2.47;1.30;;;7.80;99.90;;;;;;5034283;28;20539;-53
2023/04/01 08:39:10;;;;;;;1.67;0.80;;;7.90;99.90;;;;;;5035798;28;20540;-52
2023/04/01 08:42:11;;;;;;;1.30;0.73;;;7.90;99.90;;;;;;5033459;28;20446;-54
2023/04/01 08:45:16;;;;;;;1.50;0.87;;;7.90;99.90;;;;;;5035405;28;20520;-53
2023/04/01 08:47:57;;;;;;;3.03;1.47;;;8.00;99.90;;;;;;5036531;28;20532;-51
2023/04/01 08:50:52;;;;;;;2.50;1.30;;;8.10;99.90;;;;;;5027598;28;20454;-53
2023/04/01 08:53:30;;;;;;;1.60;1.40;;;8.20;99.90;;;;;;5024736;28;20526;-52
2023/04/01 08:56:10;;;;;;;2.70;1.40;;;8.30;99.90;;;;;;5026116;28;20451;-53
2023/04/01 08:58:56;;;;;;;5.93;1.70;;;8.40;99.90;;;;;;5024106;28;20575;-53
2023/04/01 09:01:52;;;;;;;1.57;1.33;;;8.40;99.90;;;;;;5027307;28;20489;-53
2023/04/01 09:04:31;;;;;;;2.60;1.50;;;8.70;99.90;;;;;;5028530;28;20462;-54
2023/04/01 09:07:24;;;;;;;2.30;1.50;;;8.80;99.90;;;;;;5027343;28;20478;-53
2023/04/01 09:10:25;;;;;;;3.20;1.60;;;8.80;99.90;;;;;;5027860;28;20566;-52
2023/04/01 09:13:30;;;;;;;5.60;2.00;;;9.00;99.90;;;;;;5034244;28;20474;-52
2023/04/01 09:16:21;;;;;;;2.07;1.00;;;9.50;99.90;;;;;;5021820;28;20529;-51
2023/04/01 09:19:07;;;;;;;1.67;1.00;;;9.70;99.90;;;;;;5026589;28;20596;-50
2023/04/01 09:21:59;;;;;;;1.20;0.73;;;9.50;99.90;;;;;;5028802;28;20529;-51
2023/04/01 09:25:06;;;;;;;1.43;0.80;;;9.40;99.90;;;;;;5020148;28;20477;-51
2023/04/01 09:27:42;;;;;;;1.77;1.10;;;9.50;99.90;;;;;;5018520;28;20466;-51
2023/04/01 09:30:32;;;;;;;4.70;2.07;;;9.70;99.90;;;;;;5026029;28;20597;-51
2023/04/01 09:33:29;;;;;;;1.60;1.07;;;10.00;99.90;;;;;;5032229;28;20517;-51
2023/04/01 09:36:05;;;;;;;1.30;0.90;;;9.80;99.90;;;;;;5013016;28;20478;-52
2023/04/01 09:38:45;;;;;;;1.67;0.70;;;9.70;99.90;;;;;;5014063;28;20522;-52
2023/04/01 09:41:22;;;;;;;1.27;0.73;;;9.80;99.90;;;;;;5013930;28;20538;-51
2023/04/01 09:44:04;;;;;;;1.60;1.00;;;9.80;99.90;;;;;;5013040;28;20451;-51
2023/04/01 09:46:55;;;;;;;1.50;0.90;;;9.90;99.90;;;;;;5013906;28;20935;-51
2023/04/01 09:49:52;;;;;;;1.10;0.83;;;10.00;99.90;;;;;;5031736;28;20491;-51
2023/04/01 09:52:32;;;;;;;1.60;0.73;;;9.90;99.90;;;;;;4996569;28;21001;-51
2023/04/01 09:55:14;;;;;;;2.00;0.80;;;10.00;99.90;;;;;;5027084;28;20496;-51
2023/04/01 09:58:24;;;;;;;1.13;0.70;;;10.20;99.90;;;;;;5032454;28;20477;-52
2023/04/01 10:01:13;;;;;;;1.20;0.87;;;10.20;99.90;;;;;;5030037;28;20522;-51
2023/04/01 10:04:17;;;;;;;1.77;0.80;;;10.20;99.90;;;;;;5018303;28;20527;-50
2023/04/01 10:07:21;;;;;;;3.00;1.17;;;10.20;99.90;;;;;;5030098;28;20522;-51
2023/04/01 10:10:30;;;;;;;1.77;0.90;;;10.30;99.90;;;;;;5032212;28;21029;-51
2023/04/01 10:13:26;;;;;;;1.50;1.03;;;10.50;99.90;;;;;;5016749;28;20533;-52
2023/04/01 10:16:22;;;;;;;3.10;1.00;;;10.60;99.90;;;;;;5022866;28;20935;-51
2023/04/01 10:19:13;;;;;;;9.20;6.47;;;11.00;99.90;;;;;;5029970;28;20518;-51
2023/04/01 10:22:12;;;;;;;3.23;1.57;;;11.00;99.90;;;;;;5024210;28;21049;-52
2023/04/01 10:25:17;;;;;;;6.00;3.10;;;10.90;99.90;;;;;;5029388;28;20522;-52
2023/04/01 10:28:17;;;;;;;1.60;1.50;;;11.00;99.90;;;;;;4994975;28;20989;-54
2023/04/01 10:31:17;;;;;;;2.60;0.90;;;11.20;99.90;;;;;;5026228;28;20490;-54
2023/04/01 10:34:19;;;;;;;1.43;0.90;;;11.10;99.90;;;;;;5030334;28;20537;-53
2023/04/01 10:36:56;;;;;;;1.20;0.90;;;11.10;99.90;;;;;;5026440;28;20438;-55
2023/04/01 10:40:04;;;;;;;1.40;1.00;;;11.10;99.90;;;;;;5025745;28;20507;-52
2023/04/01 10:43:05;;;;;;;2.13;1.03;;;11.20;99.90;;;;;;4995483;28;20443;-53
2023/04/01 10:46:00;;;;;;;1.30;1.10;;;11.30;99.90;;;;;;5026911;28;20486;-52
2023/04/01 10:49:07;;;;;;;1.30;0.77;;;11.30;99.90;;;;;;5026119;28;21071;-55
2023/04/01 10:52:02;;;;;;;1.30;0.97;;;11.30;99.90;;;;;;5004506;28;20444;-52
2023/04/01 10:54:47;;;;;;;1.17;0.70;;;11.30;99.90;;;;;;5028763;28;20535;-54
2023/04/01 10:57:43;;;;;;;1.30;0.90;;;11.30;99.90;;;;;;5029083;28;20538;-54
2023/04/01 11:00:40;;;;;;;1.10;0.80;;;11.20;99.90;;;;;;5020263;28;20833;-53
2023/04/01 11:03:55;;;;;;;1.40;0.83;;;11.40;99.90;;;;;;5028047;28;20455;-52
2023/04/01 11:06:54;;;;;;;1.40;0.80;;;11.50;99.90;;;;;;5031907;28;20437;-55
2023/04/01 11:10:03;;;;;;;1.10;0.93;;;11.50;99.90;;;;;;5036931;28;20517;-50
2023/04/01 11:13:17;;;;;;;1.20;0.83;;;11.50;99.90;;;;;;5037470;28;20438;-52
2023/04/01 11:16:11;;;;;;;1.07;0.60;;;11.50;99.90;;;;;;5036962;28;20970;-51
2023/04/01 11:19:04;;;;;;;1.77;0.60;;;11.60;99.90;;;;;;5034153;28;20503;-51
2023/04/01 11:21:58;;;;;;;1.10;0.73;;;11.60;99.90;;;;;;5034344;28;20886;-51
2023/04/01 11:24:59;;;;;;;1.10;0.70;;;11.60;99.90;;;;;;5035530;28;20535;-50
2023/04/01 11:27:44;;;;;;;1.23;0.97;;;11.60;99.90;;;;;;5037807;28;20526;-50
2023/04/01 11:30:23;;;;;;;1.20;0.83;;;11.80;99.90;;;;;;5038256;28;20554;-51
2023/04/01 11:33:03;;;;;;;1.10;0.73;;;12.00;99.90;;;;;;5030087;28;20930;-51
2023/04/01 11:35:56;;;;;;;0.90;0.53;;;12.00;99.90;;;;;;5027349;28;21030;-50
2023/04/01 11:38:38;;;;;;;1.00;0.50;;;12.00;99.90;;;;;;5022901;28;20495;-52
2023/04/01 11:41:23;;;;;;;1.00;0.70;;;11.80;99.90;;;;;;5034882;28;20893;-51
2023/04/01 11:44:01;;;;;;;1.20;0.70;;;11.90;99.90;;;;;;5034679;28;20521;-51
2023/04/01 11:46:38;;;;;;;1.00;0.50;;;11.70;99.90;;;;;;5035239;28;20818;-52
2023/04/01 11:49:23;;;;;;;1.10;0.70;;;11.80;99.90;;;;;;5033891;28;20505;-51
2023/04/01 11:52:02;;;;;;;1.10;0.50;;;11.70;99.90;;;;;;5033471;28;20488;-52
2023/04/01 11:54:52;;;;;;;1.80;0.70;;;11.70;99.90;;;;;;5008587;28;20521;-50
2023/04/01 11:57:37;;;;;;;1.07;0.60;;;11.70;99.90;;;;;;5030300;28;20543;-51
2023/04/01 12:00:24;;;;;;;1.87;0.60;;;11.80;99.90;;;;;;5036105;28;20520;-53
2023/04/01 12:03:11;;;;;;;1.30;0.50;;;11.90;99.90;;;;;;5035963;28;20453;-50
2023/04/01 12:05:48;;;;;;;1.07;0.70;;;11.90;99.90;;;;;;5038100;28;20818;-51
2023/04/01 12:08:26;;;;;;;1.07;0.60;;;12.10;99.90;;;;;;5027320;28;20532;-50
2023/04/01 12:11:02;;;;;;;1.67;0.63;;;12.20;99.90;;;;;;5027187;28;20535;-50
2023/04/01 12:13:37;;;;;;;0.90;0.50;;;12.20;99.90;;;;;;5027618;28;20623;-51
2023/04/01 12:16:25;;;;;;;1.30;0.80;;;12.10;99.90;;;;;;5027895;28;20575;-51
2023/04/01 12:18:55;;;;;;;0.90;0.60;;;12.10;99.90;;;;;;5027796;28;20509;-50
2023/04/01 12:21:29;;;;;;;1.10;0.70;;;12.20;99.90;;;;;;5027499;28;20521;-50
2023/04/01 12:24:34;;;;;;;1.27;0.63;;;12.30;99.90;;;;;;5027409;28;20525;-51
2023/04/01 12:27:16;;;;;;;1.00;0.50;;;12.20;99.90;;;;;;5011670;28;20885;-50
2023/04/01 12:30:14;;;;;;;1.00;0.57;;;12.40;99.90;;;;;;5025446;28;20467;-50
2023/04/01 12:32:47;;;;;;;2.03;0.90;;;12.30;99.90;;;;;;5008027;28;20456;-50
2023/04/01 12:35:26;;;;;;;1.67;0.80;;;12.40;99.90;;;;;;5008166;28;20475;-50
2023/04/01 12:38:08;;;;;;;1.83;0.80;;;12.30;99.90;;;;;;5008030;28;20450;-51
2023/04/01 12:41:04;;;;;;;2.07;0.60;;;12.30;99.90;;;;;;5016850;28;20928;-50
2023/04/01 12:44:06;;;;;;;1.30;0.60;;;12.40;99.90;;;;;;5031069;28;20555;-50
2023/04/01 12:46:41;;;;;;;1.23;0.70;;;12.40;99.90;;;;;;5026212;28;20464;-51
2023/04/01 12:49:20;;;;;;;1.07;0.50;;;12.40;99.90;;;;;;5030866;28;20555;-53
2023/04/01 12:52:09;;;;;;;1.63;0.60;;;12.50;99.90;;;;;;5031634;28;20475;-50
2023/04/01 12:55:15;;;;;;;1.33;0.53;;;12.30;99.90;;;;;;5031436;28;20478;-50
2023/04/01 12:58:24;;;;;;;1.00;0.50;;;12.30;99.90;;;;;;4982383;28;20478;-52
2023/04/01 13:01:08;;;;;;;1.70;0.77;;;12.40;99.90;;;;;;5033159;28;20482;-52
2023/04/01 13:03:54;;;;;;;1.20;0.70;;;12.20;99.90;;;;;;5032178;28;21013;-52
2023/04/01 13:06:41;;;;;;;1.00;0.70;;;12.30;99.90;;;;;;5031671;28;20450;-53
2023/04/01 13:09:20;;;;;;;1.00;0.70;;;12.40;99.90;;;;;;5030699;28;20846;-53
2023/04/01 13:12:01;;;;;;;1.03;0.70;;;12.40;99.90;;;;;;5011396;28;20540;-52
2023/04/01 13:14:51;;;;;;;1.27;0.80;;;12.60;99.90;;;;;;5021204;28;20559;-52
2023/04/01 13:17:23;;;;;;;1.70;0.70;;;12.60;99.90;;;;;;5030915;28;20993;-50
2023/04/01 13:19:58;;;;;;;1.10;0.93;;;12.60;99.90;;;;;;5030750;28;21001;-54
2023/04/01 13:22:32;;;;;;;1.20;0.70;;;12.50;99.90;;;;;;5031349;28;20471;-53
2023/04/01 13:25:04;;;;;;;3.17;0.70;;;12.40;99.90;;;;;;5030833;28;20479;-52
2023/04/01 13:27:38;;;;;;;1.00;0.50;;;12.40;99.90;;;;;;5030889;28;20468;-52
2023/04/01 13:30:22;;;;;;;1.47;0.57;;;12.40;99.90;;;;;;5030475;28;21378;-55
2023/04/01 13:32:55;;;;;;;1.10;0.60;;;12.10;99.90;;;;;;5032151;28;20476;-55
2023/04/01 13:35:33;;;;;;;1.33;0.73;;;12.00;99.90;;;;;;5031598;28;20443;-53
2023/04/01 13:38:23;;;;;;;1.20;0.73;;;12.00;99.90;;;;;;5029552;28;20441;-52
2023/04/01 13:41:01;;;;;;;1.60;1.00;;;12.20;99.90;;;;;;5030485;28;20560;-51
2023/04/01 13:43:35;;;;;;;1.00;0.83;;;12.20;99.90;;;;;;5030125;28;20545;-52
2023/04/01 13:46:33;;;;;;;0.90;0.50;;;12.30;99.90;;;;;;5031149;28;21018;-53
2023/04/01 13:49:24;;;;;;;1.10;0.70;;;12.30;99.90;;;;;;5030147;28;20557;-53